sensor_id;sensor_type;location;lat;lon;timestamp;pressure;altitude;pressure_sealevel;temperature;humidity
5284;BME280;15377;48.540;9.268;2022-08-23T00:02:22;97383.38;;;16.24;100.00
5284;BME280;15377;48.540;9.268;2022-08-23T00:04:48;97370.84;;;16.01;100.00
5284;BME280;15377;48.540;9.268;2022-08-23T00:07:14;97374.91;;;15.89;100.00
5284;BME280;15377;48.540;9.268;2022-08-23T00:09:40;97362.31;;;15.66;100.00
5284;BME280;15377;48.540;9.268;2022-08-23T00:14:34;97372.19;;;15.34;100.00
5284;BME280;15377;48.540;9.268;2022-08-23T00:17:01;97367.34;;;15.13;100.00
5284;BME280;15377;48.540;9.268;2022-08-23T00:19:27;97359.53;;;14.95;100.00
5284;BME280;15377;48.540;9.268;2022-08-23T00:21:53;97367.06;;;15.00;100.00
5284;BME280;15377;48.540;9.268;2022-08-23T00:24:20;97365.06;;;14.95;100.00
5284;BME280;15377;48.540;9.268;2022-08-23T00:26:53;97361.00;;;14.90;100.00
5284;BME280;15377;48.540;9.268;2022-08-23T00:29:20;97358.22;;;14.90;100.00
5284;BME280;15377;48.540;9.268;2022-08-23T00:31:46;97337.03;;;14.66;100.00
5284;BME280;15377;48.540;9.268;2022-08-23T00:34:12;97343.09;;;14.70;100.00
5284;BME280;15377;48.540;9.268;2022-08-23T00:36:38;97350.41;;;14.78;100.00
5284;BME280;15377;48.540;9.268;2022-08-23T00:39:04;97334.78;;;14.70;100.00
5284;BME280;15377;48.540;9.268;2022-08-23T00:41:30;97328.47;;;14.53;100.00
5284;BME280;15377;48.540;9.268;2022-08-23T00:43:56;97335.25;;;14.52;100.00
5284;BME280;15377;48.540;9.268;2022-08-23T00:46:47;97341.78;;;14.49;100.00
5284;BME280;15377;48.540;9.268;2022-08-23T00:49:30;97331.97;;;14.59;100.00
5284;BME280;15377;48.540;9.268;2022-08-23T00:52:06;97331.25;;;14.74;100.00
5284;BME280;15377;48.540;9.268;2022-08-23T00:54:35;97337.56;;;14.70;100.00
5284;BME280;15377;48.540;9.268;2022-08-23T00:57:05;97343.88;;;14.81;100.00
5284;BME280;15377;48.540;9.268;2022-08-23T00:59:32;97339.56;;;14.64;100.00
5284;BME280;15377;48.540;9.268;2022-08-23T01:01:58;97340.25;;;14.42;100.00
5284;BME280;15377;48.540;9.268;2022-08-23T01:04:26;97333.25;;;14.58;100.00
5284;BME280;15377;48.540;9.268;2022-08-23T01:07:09;97339.31;;;14.78;100.00
5284;BME280;15377;48.540;9.268;2022-08-23T01:09:38;97349.69;;;14.88;100.00
5284;BME280;15377;48.540;9.268;2022-08-23T01:12:13;97348.41;;;14.78;100.00
5284;BME280;15377;48.540;9.268;2022-08-23T01:14:48;97348.59;;;14.59;100.00
5284;BME280;15377;48.540;9.268;2022-08-23T01:17:21;97335.28;;;14.68;100.00
5284;BME280;15377;48.540;9.268;2022-08-23T01:19:54;97352.44;;;14.88;100.00
5284;BME280;15377;48.540;9.268;2022-08-23T01:22:41;97354.44;;;14.77;100.00
5284;BME280;15377;48.540;9.268;2022-08-23T01:25:13;97348.88;;;14.66;100.00
5284;BME280;15377;48.540;9.268;2022-08-23T01:27:40;97345.63;;;14.78;100.00
5284;BME280;15377;48.540;9.268;2022-08-23T01:30:09;97353.16;;;14.73;100.00
5284;BME280;15377;48.540;9.268;2022-08-23T01:32:42;97347.06;;;14.47;100.00
5284;BME280;15377;48.540;9.268;2022-08-23T01:35:08;97349.03;;;14.30;100.00
5284;BME280;15377;48.540;9.268;2022-08-23T01:37:34;97345.91;;;14.17;100.00
5284;BME280;15377;48.540;9.268;2022-08-23T01:39:59;97345.34;;;14.02;100.00
5284;BME280;15377;48.540;9.268;2022-08-23T01:42:25;97334.34;;;14.13;100.00
5284;BME280;15377;48.540;9.268;2022-08-23T01:44:50;97342.78;;;14.40;100.00
5284;BME280;15377;48.540;9.268;2022-08-23T01:47:16;97343.81;;;14.48;100.00
5284;BME280;15377;48.540;9.268;2022-08-23T01:49:41;97354.41;;;14.61;100.00
5284;BME280;15377;48.540;9.268;2022-08-23T01:52:07;97337.97;;;14.41;100.00
5284;BME280;15377;48.540;9.268;2022-08-23T01:54:32;97345.47;;;14.24;100.00
5284;BME280;15377;48.540;9.268;2022-08-23T01:56:58;97354.19;;;14.11;100.00
5284;BME280;15377;48.540;9.268;2022-08-23T01:59:23;97338.97;;;13.85;100.00
5284;BME280;15377;48.540;9.268;2022-08-23T02:01:48;97355.50;;;13.74;100.00
5284;BME280;15377;48.540;9.268;2022-08-23T02:04:14;97339.50;;;13.52;100.00
5284;BME280;15377;48.540;9.268;2022-08-23T02:06:39;97356.59;;;13.51;100.00
5284;BME280;15377;48.540;9.268;2022-08-23T02:09:05;97354.75;;;13.42;100.00
5284;BME280;15377;48.540;9.268;2022-08-23T02:11:33;97348.56;;;13.53;100.00
5284;BME280;15377;48.540;9.268;2022-08-23T02:14:02;97354.97;;;13.75;100.00
5284;BME280;15377;48.540;9.268;2022-08-23T02:16:39;97358.31;;;13.85;100.00
5284;BME280;15377;48.540;9.268;2022-08-23T02:19:07;97358.13;;;13.99;100.00
5284;BME280;15377;48.540;9.268;2022-08-23T02:21:35;97362.19;;;14.04;100.00
5284;BME280;15377;48.540;9.268;2022-08-23T02:24:10;97361.22;;;14.07;100.00
5284;BME280;15377;48.540;9.268;2022-08-23T02:26:40;97361.94;;;14.07;100.00
5284;BME280;15377;48.540;9.268;2022-08-23T02:29:06;97372.34;;;14.18;100.00
5284;BME280;15377;48.540;9.268;2022-08-23T02:31:32;97358.53;;;14.18;100.00
5284;BME280;15377;48.540;9.268;2022-08-23T02:33:58;97363.34;;;14.23;100.00
5284;BME280;15377;48.540;9.268;2022-08-23T02:36:25;97370.41;;;14.29;100.00
5284;BME280;15377;48.540;9.268;2022-08-23T02:38:52;97361.06;;;14.21;100.00
5284;BME280;15377;48.540;9.268;2022-08-23T02:41:17;97372.31;;;14.12;100.00
5284;BME280;15377;48.540;9.268;2022-08-23T02:43:43;97361.63;;;13.89;100.00
5284;BME280;15377;48.540;9.268;2022-08-23T02:46:08;97364.50;;;13.69;100.00
5284;BME280;15377;48.540;9.268;2022-08-23T02:48:35;97362.91;;;13.57;100.00
5284;BME280;15377;48.540;9.268;2022-08-23T02:51:01;97373.94;;;13.51;100.00
5284;BME280;15377;48.540;9.268;2022-08-23T02:53:29;97357.94;;;13.30;100.00
5284;BME280;15377;48.540;9.268;2022-08-23T02:55:54;97353.03;;;13.45;100.00
5284;BME280;15377;48.540;9.268;2022-08-23T02:58:20;97364.38;;;13.52;100.00
5284;BME280;15377;48.540;9.268;2022-08-23T03:00:47;97381.75;;;13.53;100.00
5284;BME280;15377;48.540;9.268;2022-08-23T03:03:13;97374.06;;;13.37;100.00
5284;BME280;15377;48.540;9.268;2022-08-23T03:05:39;97382.22;;;13.20;100.00
5284;BME280;15377;48.540;9.268;2022-08-23T03:08:04;97365.47;;;12.98;100.00
5284;BME280;15377;48.540;9.268;2022-08-23T03:10:30;97380.41;;;13.12;100.00
5284;BME280;15377;48.540;9.268;2022-08-23T03:12:55;97373.66;;;12.93;100.00
5284;BME280;15377;48.540;9.268;2022-08-23T03:15:21;97372.72;;;12.96;100.00
5284;BME280;15377;48.540;9.268;2022-08-23T03:17:47;97357.97;;;12.79;100.00
5284;BME280;15377;48.540;9.268;2022-08-23T03:20:13;97371.69;;;12.73;100.00
5284;BME280;15377;48.540;9.268;2022-08-23T03:22:39;97369.72;;;12.54;100.00
5284;BME280;15377;48.540;9.268;2022-08-23T03:25:05;97377.53;;;12.55;100.00
5284;BME280;15377;48.540;9.268;2022-08-23T03:27:30;97366.16;;;12.48;100.00
5284;BME280;15377;48.540;9.268;2022-08-23T03:29:57;97365.59;;;12.44;100.00
5284;BME280;15377;48.540;9.268;2022-08-23T03:32:22;97368.38;;;12.44;100.00
5284;BME280;15377;48.540;9.268;2022-08-23T03:34:47;97354.88;;;12.26;100.00
5284;BME280;15377;48.540;9.268;2022-08-23T03:37:13;97351.75;;;12.18;100.00
5284;BME280;15377;48.540;9.268;2022-08-23T03:39:38;97370.66;;;12.25;100.00
5284;BME280;15377;48.540;9.268;2022-08-23T03:42:04;97358.19;;;12.10;100.00
5284;BME280;15377;48.540;9.268;2022-08-23T03:44:29;97373.53;;;12.16;100.00
5284;BME280;15377;48.540;9.268;2022-08-23T03:46:55;97375.97;;;12.09;100.00
5284;BME280;15377;48.540;9.268;2022-08-23T03:49:20;97375.66;;;12.07;100.00
5284;BME280;15377;48.540;9.268;2022-08-23T03:51:46;97376.09;;;12.00;100.00
5284;BME280;15377;48.540;9.268;2022-08-23T03:54:11;97369.19;;;11.90;100.00
5284;BME280;15377;48.540;9.268;2022-08-23T03:56:38;97387.69;;;12.04;100.00
5284;BME280;15377;48.540;9.268;2022-08-23T03:59:13;97382.16;;;12.04;100.00
5284;BME280;15377;48.540;9.268;2022-08-23T04:01:38;97346.31;;;11.84;100.00
5284;BME280;15377;48.540;9.268;2022-08-23T04:04:04;97387.69;;;12.04;100.00
5284;BME280;15377;48.540;9.268;2022-08-23T04:06:29;97387.13;;;12.00;100.00
5284;BME280;15377;48.540;9.268;2022-08-23T04:08:56;97386.50;;;12.10;100.00
5284;BME280;15377;48.540;9.268;2022-08-23T04:11:22;97394.44;;;12.23;100.00
5284;BME280;15377;48.540;9.268;2022-08-23T04:13:48;97391.25;;;12.30;100.00
5284;BME280;15377;48.540;9.268;2022-08-23T04:16:13;97385.22;;;12.26;100.00
5284;BME280;15377;48.540;9.268;2022-08-23T04:18:39;97397.56;;;12.30;100.00
5284;BME280;15377;48.540;9.268;2022-08-23T04:21:12;97392.09;;;12.36;100.00
5284;BME280;15377;48.540;9.268;2022-08-23T04:23:39;97397.06;;;12.52;100.00
5284;BME280;15377;48.540;9.268;2022-08-23T04:26:05;97404.38;;;12.55;100.00
5284;BME280;15377;48.540;9.268;2022-08-23T04:28:32;97392.25;;;12.47;100.00
5284;BME280;15377;48.540;9.268;2022-08-23T04:30:57;97406.09;;;12.52;100.00
5284;BME280;15377;48.540;9.268;2022-08-23T04:33:27;97398.19;;;12.40;100.00
5284;BME280;15377;48.540;9.268;2022-08-23T04:35:53;97418.59;;;12.48;100.00
5284;BME280;15377;48.540;9.268;2022-08-23T04:38:18;97409.22;;;12.40;100.00
5284;BME280;15377;48.540;9.268;2022-08-23T04:40:44;97402.59;;;12.32;100.00
5284;BME280;15377;48.540;9.268;2022-08-23T04:43:28;97414.19;;;12.36;100.00
5284;BME280;15377;48.540;9.268;2022-08-23T04:45:54;97413.13;;;12.33;100.00
5284;BME280;15377;48.540;9.268;2022-08-23T04:48:20;97415.34;;;12.29;100.00
5284;BME280;15377;48.540;9.268;2022-08-23T04:50:46;97423.69;;;12.35;100.00
5284;BME280;15377;48.540;9.268;2022-08-23T04:53:11;97423.91;;;12.31;100.00
5284;BME280;15377;48.540;9.268;2022-08-23T04:55:37;97404.94;;;12.19;100.00
5284;BME280;15377;48.540;9.268;2022-08-23T04:58:03;97422.03;;;12.23;100.00
5284;BME280;15377;48.540;9.268;2022-08-23T05:00:29;97437.22;;;12.33;100.00
5284;BME280;15377;48.540;9.268;2022-08-23T05:02:54;97426.19;;;12.33;100.00
5284;BME280;15377;48.540;9.268;2022-08-23T05:05:20;97427.28;;;12.41;100.00
5284;BME280;15377;48.540;9.268;2022-08-23T05:07:46;97439.50;;;12.54;100.00
5284;BME280;15377;48.540;9.268;2022-08-23T05:10:13;97445.56;;;12.58;100.00
5284;BME280;15377;48.540;9.268;2022-08-23T05:12:39;97433.31;;;12.59;100.00
5284;BME280;15377;48.540;9.268;2022-08-23T05:15:05;97440.94;;;12.70;100.00
5284;BME280;15377;48.540;9.268;2022-08-23T05:17:31;97440.25;;;12.75;100.00
5284;BME280;15377;48.540;9.268;2022-08-23T05:19:56;97447.44;;;12.87;100.00
5284;BME280;15377;48.540;9.268;2022-08-23T05:22:22;97443.56;;;12.99;100.00
5284;BME280;15377;48.540;9.268;2022-08-23T05:24:47;97445.19;;;13.11;100.00
5284;BME280;15377;48.540;9.268;2022-08-23T05:27:13;97442.31;;;13.25;100.00
5284;BME280;15377;48.540;9.268;2022-08-23T05:29:38;97444.72;;;13.43;100.00
5284;BME280;15377;48.540;9.268;2022-08-23T05:32:04;97453.81;;;13.75;100.00
5284;BME280;15377;48.540;9.268;2022-08-23T05:34:30;97458.97;;;13.93;100.00
5284;BME280;15377;48.540;9.268;2022-08-23T05:36:55;97455.53;;;14.03;100.00
5284;BME280;15377;48.540;9.268;2022-08-23T05:39:21;97456.81;;;14.08;100.00
5284;BME280;15377;48.540;9.268;2022-08-23T05:41:46;97457.59;;;14.14;100.00
5284;BME280;15377;48.540;9.268;2022-08-23T05:44:12;97465.97;;;14.19;100.00
5284;BME280;15377;48.540;9.268;2022-08-23T05:46:38;97462.91;;;14.17;100.00
5284;BME280;15377;48.540;9.268;2022-08-23T05:49:04;97470.03;;;14.29;100.00
5284;BME280;15377;48.540;9.268;2022-08-23T05:51:32;97473.88;;;14.37;100.00
5284;BME280;15377;48.540;9.268;2022-08-23T05:54:06;97474.44;;;14.47;100.00
5284;BME280;15377;48.540;9.268;2022-08-23T05:56:35;97464.66;;;14.57;100.00
5284;BME280;15377;48.540;9.268;2022-08-23T05:59:03;97476.09;;;14.80;100.00
5284;BME280;15377;48.540;9.268;2022-08-23T06:01:31;97488.75;;;14.98;100.00
5284;BME280;15377;48.540;9.268;2022-08-23T06:04:01;97494.88;;;15.18;100.00
5284;BME280;15377;48.540;9.268;2022-08-23T06:06:27;97500.75;;;15.31;100.00
5284;BME280;15377;48.540;9.268;2022-08-23T06:08:53;97501.00;;;15.44;100.00
5284;BME280;15377;48.540;9.268;2022-08-23T06:11:24;97506.59;;;15.55;100.00
5284;BME280;15377;48.540;9.268;2022-08-23T06:13:58;97509.13;;;15.64;100.00
5284;BME280;15377;48.540;9.268;2022-08-23T06:16:27;97504.09;;;15.79;100.00
5284;BME280;15377;48.540;9.268;2022-08-23T06:18:54;97503.09;;;15.93;100.00
5284;BME280;15377;48.540;9.268;2022-08-23T06:21:20;97501.56;;;16.03;100.00
5284;BME280;15377;48.540;9.268;2022-08-23T06:23:46;97506.09;;;16.17;100.00
5284;BME280;15377;48.540;9.268;2022-08-23T06:26:15;97510.38;;;16.29;100.00
5284;BME280;15377;48.540;9.268;2022-08-23T06:28:42;97506.31;;;16.36;100.00
5284;BME280;15377;48.540;9.268;2022-08-23T06:31:08;97518.44;;;16.49;100.00
5284;BME280;15377;48.540;9.268;2022-08-23T06:33:33;97516.66;;;16.57;100.00
5284;BME280;15377;48.540;9.268;2022-08-23T06:36:04;97524.19;;;16.73;100.00
5284;BME280;15377;48.540;9.268;2022-08-23T06:38:30;97529.72;;;16.84;100.00
5284;BME280;15377;48.540;9.268;2022-08-23T06:41:01;97518.06;;;16.91;100.00
5284;BME280;15377;48.540;9.268;2022-08-23T06:43:27;97524.31;;;17.08;100.00
5284;BME280;15377;48.540;9.268;2022-08-23T06:45:53;97521.00;;;17.15;100.00
5284;BME280;15377;48.540;9.268;2022-08-23T06:48:19;97521.44;;;17.30;100.00
5284;BME280;15377;48.540;9.268;2022-08-23T06:50:44;97533.50;;;17.49;100.00
5284;BME280;15377;48.540;9.268;2022-08-23T06:53:10;97526.66;;;17.56;100.00
5284;BME280;15377;48.540;9.268;2022-08-23T06:55:35;97517.53;;;17.55;100.00
5284;BME280;15377;48.540;9.268;2022-08-23T06:58:01;97540.16;;;17.76;100.00
5284;BME280;15377;48.540;9.268;2022-08-23T07:00:27;97530.75;;;17.84;100.00
5284;BME280;15377;48.540;9.268;2022-08-23T07:02:52;97547.53;;;18.08;100.00
5284;BME280;15377;48.540;9.268;2022-08-23T07:05:18;97554.78;;;18.22;100.00
5284;BME280;15377;48.540;9.268;2022-08-23T07:07:43;97558.00;;;18.32;100.00
5284;BME280;15377;48.540;9.268;2022-08-23T07:10:09;97551.00;;;18.49;100.00
5284;BME280;15377;48.540;9.268;2022-08-23T07:12:38;97555.25;;;18.56;100.00
5284;BME280;15377;48.540;9.268;2022-08-23T07:15:05;97550.78;;;18.71;100.00
5284;BME280;15377;48.540;9.268;2022-08-23T07:17:30;97554.38;;;18.90;100.00
5284;BME280;15377;48.540;9.268;2022-08-23T07:19:56;97548.44;;;18.99;100.00
5284;BME280;15377;48.540;9.268;2022-08-23T07:22:21;97557.13;;;19.19;100.00
5284;BME280;15377;48.540;9.268;2022-08-23T07:24:48;97571.75;;;19.25;100.00
5284;BME280;15377;48.540;9.268;2022-08-23T07:27:14;97566.56;;;19.35;100.00
5284;BME280;15377;48.540;9.268;2022-08-23T07:29:39;97567.25;;;19.41;100.00
5284;BME280;15377;48.540;9.268;2022-08-23T07:32:05;97562.59;;;19.49;100.00
5284;BME280;15377;48.540;9.268;2022-08-23T07:34:31;97576.59;;;19.62;100.00
5284;BME280;15377;48.540;9.268;2022-08-23T07:36:57;97568.31;;;19.75;100.00
5284;BME280;15377;48.540;9.268;2022-08-23T07:39:23;97563.19;;;19.79;100.00
5284;BME280;15377;48.540;9.268;2022-08-23T07:41:50;97567.53;;;19.93;100.00
5284;BME280;15377;48.540;9.268;2022-08-23T07:44:16;97567.69;;;20.00;100.00
5284;BME280;15377;48.540;9.268;2022-08-23T07:46:43;97562.56;;;20.04;100.00
5284;BME280;15377;48.540;9.268;2022-08-23T07:49:09;97549.44;;;19.99;100.00
5284;BME280;15377;48.540;9.268;2022-08-23T07:51:36;97567.69;;;20.19;100.00
5284;BME280;15377;48.540;9.268;2022-08-23T07:54:03;97570.09;;;20.28;100.00
5284;BME280;15377;48.540;9.268;2022-08-23T07:56:29;97579.56;;;20.38;100.00
5284;BME280;15377;48.540;9.268;2022-08-23T07:58:54;97570.88;;;20.41;100.00
5284;BME280;15377;48.540;9.268;2022-08-23T08:01:25;97566.94;;;20.50;100.00
5284;BME280;15377;48.540;9.268;2022-08-23T08:03:54;97588.56;;;20.62;100.00
5284;BME280;15377;48.540;9.268;2022-08-23T08:06:44;97589.13;;;20.74;100.00
5284;BME280;15377;48.540;9.268;2022-08-23T08:09:12;97585.34;;;20.84;100.00
5284;BME280;15377;48.540;9.268;2022-08-23T08:11:42;97577.13;;;20.92;100.00
5284;BME280;15377;48.540;9.268;2022-08-23T08:14:09;97584.22;;;20.93;100.00
5284;BME280;15377;48.540;9.268;2022-08-23T08:16:39;97587.69;;;20.99;100.00
5284;BME280;15377;48.540;9.268;2022-08-23T08:19:09;97578.72;;;21.00;100.00
5284;BME280;15377;48.540;9.268;2022-08-23T08:21:35;97581.97;;;21.17;100.00
5284;BME280;15377;48.540;9.268;2022-08-23T08:24:02;97579.50;;;21.27;100.00
5284;BME280;15377;48.540;9.268;2022-08-23T08:26:29;97577.34;;;21.33;100.00
5284;BME280;15377;48.540;9.268;2022-08-23T08:28:55;97583.38;;;21.37;100.00
5284;BME280;15377;48.540;9.268;2022-08-23T08:31:22;97576.69;;;21.40;100.00
5284;BME280;15377;48.540;9.268;2022-08-23T08:33:47;97580.78;;;21.39;100.00
5284;BME280;15377;48.540;9.268;2022-08-23T08:36:49;97589.25;;;21.59;100.00
5284;BME280;15377;48.540;9.268;2022-08-23T08:39:22;97586.56;;;21.67;100.00
5284;BME280;15377;48.540;9.268;2022-08-23T08:42:20;97592.16;;;21.80;100.00
5284;BME280;15377;48.540;9.268;2022-08-23T08:45:15;97594.38;;;21.94;100.00
5284;BME280;15377;48.540;9.268;2022-08-23T08:47:55;97591.00;;;22.09;100.00
5284;BME280;15377;48.540;9.268;2022-08-23T08:53:04;97589.28;;;22.26;100.00
5284;BME280;15377;48.540;9.268;2022-08-23T08:55:39;97591.59;;;22.48;100.00
5284;BME280;15377;48.540;9.268;2022-08-23T08:58:06;97595.31;;;22.64;100.00
5284;BME280;15377;48.540;9.268;2022-08-23T09:00:38;97595.81;;;22.83;100.00
5284;BME280;15377;48.540;9.268;2022-08-23T09:03:09;97600.75;;;22.90;100.00
5284;BME280;15377;48.540;9.268;2022-08-23T09:05:37;97593.66;;;22.96;100.00
5284;BME280;15377;48.540;9.268;2022-08-23T09:08:35;97596.75;;;23.05;100.00
5284;BME280;15377;48.540;9.268;2022-08-23T09:19:12;97585.81;;;23.50;100.00
5284;BME280;15377;48.540;9.268;2022-08-23T09:24:07;97571.97;;;23.60;100.00
5284;BME280;15377;48.540;9.268;2022-08-23T09:26:33;97585.47;;;23.89;100.00
5284;BME280;15377;48.540;9.268;2022-08-23T09:31:46;97593.97;;;24.19;100.00
5284;BME280;15377;48.540;9.268;2022-08-23T09:34:27;97594.00;;;24.42;100.00
5284;BME280;15377;48.540;9.268;2022-08-23T09:37:22;97596.28;;;24.51;98.22
5284;BME280;15377;48.540;9.268;2022-08-23T09:40:06;97593.66;;;25.05;95.79
5284;BME280;15377;48.540;9.268;2022-08-23T09:42:37;97593.13;;;25.91;89.42
5284;BME280;15377;48.540;9.268;2022-08-23T09:47:47;97587.53;;;28.49;71.72
5284;BME280;15377;48.540;9.268;2022-08-23T09:52:42;97587.41;;;29.95;63.71
5284;BME280;15377;48.540;9.268;2022-08-23T09:55:24;97585.09;;;30.91;60.72
5284;BME280;15377;48.540;9.268;2022-08-23T09:57:50;97577.84;;;31.30;53.48
5284;BME280;15377;48.540;9.268;2022-08-23T10:02:42;97573.56;;;31.61;51.71
5284;BME280;15377;48.540;9.268;2022-08-23T10:05:19;97584.41;;;31.53;47.70
5284;BME280;15377;48.540;9.268;2022-08-23T10:07:58;97578.31;;;32.21;49.31
5284;BME280;15377;48.540;9.268;2022-08-23T10:12:51;97555.38;;;32.86;44.80
5284;BME280;15377;48.540;9.268;2022-08-23T10:15:19;97571.50;;;33.16;44.05
5284;BME280;15377;48.540;9.268;2022-08-23T10:18:01;97571.53;;;33.64;42.70
5284;BME280;15377;48.540;9.268;2022-08-23T10:20:40;97577.16;;;34.62;44.90
5284;BME280;15377;48.540;9.268;2022-08-23T10:23:22;97563.91;;;34.55;37.08
5284;BME280;15377;48.540;9.268;2022-08-23T10:25:58;97573.16;;;33.92;39.76
5284;BME280;15377;48.540;9.268;2022-08-23T10:34:02;97577.66;;;34.59;38.01
5284;BME280;15377;48.540;9.268;2022-08-23T10:36:48;97562.91;;;34.76;38.45
5284;BME280;15377;48.540;9.268;2022-08-23T10:39:24;97564.31;;;35.15;36.09
5284;BME280;15377;48.540;9.268;2022-08-23T10:42:07;97561.00;;;34.42;37.43
5284;BME280;15377;48.540;9.268;2022-08-23T10:44:57;97560.91;;;35.05;35.96
5284;BME280;15377;48.540;9.268;2022-08-23T10:50:17;97558.94;;;34.69;36.69
5284;BME280;15377;48.540;9.268;2022-08-23T10:52:56;97563.97;;;34.19;36.90
5284;BME280;15377;48.540;9.268;2022-08-23T10:55:31;97555.81;;;35.17;37.63
5284;BME280;15377;48.540;9.268;2022-08-23T10:58:02;97549.56;;;35.90;35.00
5284;BME280;15377;48.540;9.268;2022-08-23T11:00:30;97545.88;;;36.61;34.44
5284;BME280;15377;48.540;9.268;2022-08-23T11:05:33;97544.78;;;37.32;32.59
5284;BME280;15377;48.540;9.268;2022-08-23T11:08:04;97543.59;;;37.37;31.74
5284;BME280;15377;48.540;9.268;2022-08-23T11:13:05;97539.44;;;36.03;30.98
5284;BME280;15377;48.540;9.268;2022-08-23T11:15:58;97537.22;;;36.01;30.02
5284;BME280;15377;48.540;9.268;2022-08-23T11:23:40;97528.94;;;36.67;31.00
5284;BME280;15377;48.540;9.268;2022-08-23T11:31:50;97533.66;;;35.04;30.57
5284;BME280;15377;48.540;9.268;2022-08-23T11:34:30;97534.81;;;35.67;29.09
5284;BME280;15377;48.540;9.268;2022-08-23T11:42:25;97526.53;;;35.73;29.18
5284;BME280;15377;48.540;9.268;2022-08-23T11:44:59;97519.34;;;35.04;30.80
5284;BME280;15377;48.540;9.268;2022-08-23T11:47:38;97515.97;;;34.29;31.02
5284;BME280;15377;48.540;9.268;2022-08-23T11:50:41;97517.66;;;33.95;31.02
5284;BME280;15377;48.540;9.268;2022-08-23T11:53:17;97512.22;;;33.88;32.21
5284;BME280;15377;48.540;9.268;2022-08-23T11:55:58;97507.38;;;33.29;31.96
5284;BME280;15377;48.540;9.268;2022-08-23T11:59:03;97516.91;;;32.30;31.29
5284;BME280;15377;48.540;9.268;2022-08-23T12:01:36;97514.00;;;31.21;33.35
5284;BME280;15377;48.540;9.268;2022-08-23T12:04:08;97520.81;;;31.07;34.35
5284;BME280;15377;48.540;9.268;2022-08-23T12:06:40;97517.69;;;30.42;37.74
5284;BME280;15377;48.540;9.268;2022-08-23T12:16:56;97502.75;;;29.35;40.43
5284;BME280;15377;48.540;9.268;2022-08-23T12:19:36;97509.91;;;29.17;35.87
5284;BME280;15377;48.540;9.268;2022-08-23T12:22:14;97513.31;;;28.96;36.93
5284;BME280;15377;48.540;9.268;2022-08-23T12:25:06;97516.69;;;28.76;36.56
5284;BME280;15377;48.540;9.268;2022-08-23T12:27:41;97510.94;;;28.57;35.13
5284;BME280;15377;48.540;9.268;2022-08-23T12:38:12;97509.31;;;28.27;38.87
5284;BME280;15377;48.540;9.268;2022-08-23T12:40:46;97493.03;;;27.92;36.09
5284;BME280;15377;48.540;9.268;2022-08-23T12:45:55;97502.44;;;27.94;37.26
5284;BME280;15377;48.540;9.268;2022-08-23T12:48:23;97494.81;;;27.70;35.95
5284;BME280;15377;48.540;9.268;2022-08-23T12:50:55;97506.56;;;27.67;36.34
5284;BME280;15377;48.540;9.268;2022-08-23T12:53:36;97487.59;;;27.60;38.25
5284;BME280;15377;48.540;9.268;2022-08-23T12:56:06;97504.00;;;27.61;38.47
5284;BME280;15377;48.540;9.268;2022-08-23T12:58:34;97502.41;;;27.68;37.05
5284;BME280;15377;48.540;9.268;2022-08-23T13:01:04;97494.06;;;27.70;36.22
5284;BME280;15377;48.540;9.268;2022-08-23T13:03:38;97498.75;;;27.75;36.88
5284;BME280;15377;48.540;9.268;2022-08-23T13:06:07;97489.09;;;27.78;37.89
5284;BME280;15377;48.540;9.268;2022-08-23T13:08:41;97489.56;;;27.84;39.20
5284;BME280;15377;48.540;9.268;2022-08-23T13:11:10;97486.09;;;27.76;39.02
5284;BME280;15377;48.540;9.268;2022-08-23T13:13:38;97481.81;;;27.84;37.46
5284;BME280;15377;48.540;9.268;2022-08-23T13:16:25;97494.88;;;27.97;36.38
5284;BME280;15377;48.540;9.268;2022-08-23T13:18:51;97494.22;;;27.89;34.84
5284;BME280;15377;48.540;9.268;2022-08-23T13:26:51;97493.59;;;27.81;38.64
5284;BME280;15377;48.540;9.268;2022-08-23T13:34:48;97488.56;;;27.72;38.38
5284;BME280;15377;48.540;9.268;2022-08-23T13:37:22;97487.75;;;27.62;38.28
5284;BME280;15377;48.540;9.268;2022-08-23T13:39:52;97491.50;;;27.64;39.26
5284;BME280;15377;48.540;9.268;2022-08-23T13:42:33;97486.28;;;27.61;40.61
5284;BME280;15377;48.540;9.268;2022-08-23T13:45:14;97475.72;;;27.61;40.24
5284;BME280;15377;48.540;9.268;2022-08-23T13:47:54;97486.44;;;27.63;40.15
5284;BME280;15377;48.540;9.268;2022-08-23T13:50:24;97490.09;;;27.56;39.21
5284;BME280;15377;48.540;9.268;2022-08-23T13:52:50;97484.44;;;27.56;40.11
5284;BME280;15377;48.540;9.268;2022-08-23T13:55:15;97477.63;;;27.59;40.62
5284;BME280;15377;48.540;9.268;2022-08-23T13:57:41;97487.50;;;27.67;40.45
5284;BME280;15377;48.540;9.268;2022-08-23T14:00:07;97488.75;;;27.74;40.09
5284;BME280;15377;48.540;9.268;2022-08-23T14:02:36;97487.59;;;27.77;40.15
5284;BME280;15377;48.540;9.268;2022-08-23T14:05:07;97489.47;;;27.74;40.90
5284;BME280;15377;48.540;9.268;2022-08-23T14:07:33;97474.38;;;27.62;41.98
5284;BME280;15377;48.540;9.268;2022-08-23T14:09:59;97480.88;;;27.99;40.99
5284;BME280;15377;48.540;9.268;2022-08-23T14:12:27;97474.19;;;28.04;41.67
5284;BME280;15377;48.540;9.268;2022-08-23T14:14:55;97466.56;;;27.97;41.26
5284;BME280;15377;48.540;9.268;2022-08-23T14:17:20;97467.09;;;27.86;40.11
5284;BME280;15377;48.540;9.268;2022-08-23T14:19:47;97471.19;;;28.02;43.06
5284;BME280;15377;48.540;9.268;2022-08-23T14:22:13;97466.88;;;28.01;41.03
5284;BME280;15377;48.540;9.268;2022-08-23T14:24:39;97468.94;;;28.00;41.93
5284;BME280;15377;48.540;9.268;2022-08-23T14:27:05;97467.88;;;27.96;41.58
5284;BME280;15377;48.540;9.268;2022-08-23T14:29:31;97475.53;;;28.03;43.33
5284;BME280;15377;48.540;9.268;2022-08-23T14:31:58;97477.91;;;27.97;39.24
5284;BME280;15377;48.540;9.268;2022-08-23T14:34:27;97462.41;;;27.98;42.62
5284;BME280;15377;48.540;9.268;2022-08-23T14:36:53;97457.47;;;27.89;42.12
5284;BME280;15377;48.540;9.268;2022-08-23T14:39:22;97471.75;;;27.91;39.27
5284;BME280;15377;48.540;9.268;2022-08-23T14:41:48;97465.38;;;28.00;39.38
5284;BME280;15377;48.540;9.268;2022-08-23T14:44:14;97477.22;;;28.15;42.12